createdAt,value
2022-11-28T00:01:10.795Z,11.13
2022-11-28T00:03:41.946Z,11.15
2022-11-28T00:06:16.243Z,11.65
2022-11-28T00:08:49.646Z,10.27
2022-11-28T00:11:24.479Z,10.77
2022-11-28T00:13:55.834Z,11.65
2022-11-28T00:16:27.911Z,10.27
2022-11-28T00:19:00.098Z,10.50
2022-11-28T00:21:31.766Z,9.90
2022-11-28T00:24:04.859Z,10.20
2022-11-28T00:26:40.452Z,10.38
2022-11-28T00:29:24.655Z,9.65
2022-11-28T00:31:56.859Z,9.88
2022-11-28T00:34:28.646Z,9.93
2022-11-28T00:36:59.979Z,8.75
2022-11-28T00:39:31.725Z,9.55
2022-11-28T00:42:06.676Z,9.60
2022-11-28T00:44:38.288Z,9.60
2022-11-28T00:47:09.872Z,8.02
2022-11-28T00:49:43.101Z,7.32
2022-11-28T00:52:14.784Z,7.25
2022-11-28T00:54:45.872Z,6.55
2022-11-28T00:57:20.175Z,6.20
2022-11-28T00:59:51.765Z,6.53
2022-11-28T01:02:24.688Z,6.45
2022-11-28T01:04:56.643Z,6.00
2022-11-28T01:07:29.541Z,6.65
2022-11-28T01:10:01.251Z,7.78
2022-11-28T01:12:35.487Z,7.25
2022-11-28T01:15:07.348Z,7.10
2022-11-28T01:17:38.636Z,6.40
2022-11-28T01:20:12.022Z,7.05
2022-11-28T01:22:43.517Z,6.18
2022-11-28T01:25:15.322Z,7.13
2022-11-28T01:27:49.135Z,6.45
2022-11-28T01:30:23.050Z,6.80
2022-11-28T01:32:54.306Z,7.13
2022-11-28T01:35:26.299Z,6.80
2022-11-28T01:37:57.326Z,6.47
2022-11-28T01:40:28.242Z,7.90
2022-11-28T01:43:01.961Z,7.50
2022-11-28T01:45:36.924Z,6.35
2022-11-28T01:48:08.926Z,6.78
2022-11-28T01:50:41.353Z,6.05
2022-11-28T01:53:14.186Z,6.15
2022-11-28T01:55:52.009Z,6.07
2022-11-28T01:58:26.536Z,5.88
2022-11-28T02:00:59.109Z,5.43
2022-11-28T02:03:37.763Z,5.22
2022-11-28T02:06:11.681Z,4.97
2022-11-28T02:08:43.705Z,4.07
2022-11-28T02:11:43.149Z,5.25
2022-11-28T02:14:29.496Z,5.03
2022-11-28T02:17:12.515Z,4.20
2022-11-28T02:20:22.863Z,4.30
2022-11-28T02:23:03.079Z,4.57
2022-11-28T02:26:07.212Z,4.85
2022-11-28T02:29:06.494Z,3.55
2022-11-28T02:32:10.312Z,2.88
2022-11-28T02:34:48.707Z,3.35
2022-11-28T02:37:28.537Z,3.20
2022-11-28T02:40:09.697Z,4.18
2022-11-28T02:42:51.145Z,4.45
2022-11-28T02:45:31.563Z,3.53
2022-11-28T02:48:08.794Z,5.15
2022-11-28T02:50:48.269Z,4.20
2022-11-28T02:53:26.291Z,4.15
2022-11-28T02:56:01.316Z,3.20
2022-11-28T02:58:32.822Z,4.13
2022-11-28T03:01:04.248Z,3.92
2022-11-28T03:03:57.154Z,3.72
2022-11-28T03:06:42.056Z,3.63
2022-11-28T03:09:35.400Z,3.38
2022-11-28T03:12:16.589Z,2.88
2022-11-28T03:14:55.431Z,3.72
2022-11-28T03:17:36.494Z,3.17
2022-11-28T03:20:21.019Z,3.40
2022-11-28T03:23:04.764Z,3.10
2022-11-28T03:25:42.123Z,2.35
2022-11-28T03:28:17.467Z,2.85
2022-11-28T03:30:53.602Z,3.13
2022-11-28T03:33:26.277Z,2.97
2022-11-28T03:36:05.021Z,3.42
2022-11-28T03:38:41.195Z,2.25
2022-11-28T03:41:17.903Z,2.83
2022-11-28T03:43:54.556Z,2.55
2022-11-28T03:46:30.307Z,2.95
2022-11-28T03:49:04.104Z,3.15
2022-11-28T03:51:41.459Z,2.50
2022-11-28T03:54:16.907Z,3.45
2022-11-28T03:56:55.373Z,2.58
2022-11-28T03:59:32.860Z,2.70
2022-11-28T04:02:09.841Z,2.70
2022-11-28T04:04:50.056Z,2.95
2022-11-28T04:07:31.239Z,2.50
2022-11-28T04:10:09.297Z,2.92
2022-11-28T04:12:51.621Z,2.55
2022-11-28T04:15:30.082Z,3.03
2022-11-28T04:18:06.093Z,3.08
2022-11-28T04:20:43.381Z,3.42
2022-11-28T04:23:21.410Z,3.67
2022-11-28T04:25:58.050Z,4.10
2022-11-28T04:28:33.778Z,3.85
2022-11-28T04:31:09.109Z,3.00
2022-11-28T04:33:45.214Z,3.30
2022-11-28T04:36:20.828Z,2.80
2022-11-28T04:38:57.934Z,3.13
2022-11-28T04:44:07.617Z,2.42
2022-11-28T04:46:43.513Z,2.08
2022-11-28T04:49:16.858Z,2.60
2022-11-28T04:51:54.564Z,3.17
2022-11-28T04:54:34.855Z,3.35
2022-11-28T04:57:14.592Z,3.47
2022-11-28T04:59:46.976Z,3.53
2022-11-28T05:02:19.994Z,2.58
2022-11-28T05:04:53.995Z,2.47
2022-11-28T05:07:26.207Z,2.20
2022-11-28T05:10:01.186Z,2.17
2022-11-28T05:12:33.282Z,3.40
2022-11-28T05:15:04.549Z,3.13
2022-11-28T05:17:41.722Z,3.13
2022-11-28T05:20:14.682Z,2.40
2022-11-28T05:22:45.672Z,3.20
2022-11-28T05:25:19.843Z,2.88
2022-11-28T05:27:51.381Z,2.58
2022-11-28T05:30:23.539Z,3.83
2022-11-28T05:32:55.484Z,6.55
2022-11-28T05:35:26.924Z,5.75
2022-11-28T05:37:58.398Z,5.88
2022-11-28T05:40:32.333Z,5.53
2022-11-28T05:43:05.062Z,3.83
2022-11-28T05:45:37.105Z,3.90
2022-11-28T05:48:10.740Z,4.53
2022-11-28T05:50:43.809Z,3.67
2022-11-28T05:53:15.737Z,2.60
2022-11-28T05:55:50.604Z,2.60
2022-11-28T05:58:21.708Z,1.98
2022-11-28T06:00:54.505Z,2.17
2022-11-28T06:03:25.905Z,2.38
2022-11-28T06:05:57.300Z,2.15
2022-11-28T06:08:28.858Z,1.90
2022-11-28T06:11:04.078Z,1.88
2022-11-28T06:13:35.234Z,2.10
2022-11-28T06:16:10.508Z,2.67
2022-11-28T06:18:45.039Z,2.67
2022-11-28T06:21:17.975Z,2.53
2022-11-28T06:23:49.007Z,2.17
2022-11-28T06:26:26.012Z,2.78
2022-11-28T06:28:58.703Z,2.30
2022-11-28T06:31:33.052Z,1.98
2022-11-28T06:34:05.092Z,2.28
2022-11-28T06:36:36.805Z,2.35
2022-11-28T06:39:09.255Z,2.78
2022-11-28T06:41:43.074Z,3.15
2022-11-28T06:44:18.542Z,2.40
2022-11-28T06:46:50.181Z,2.47
2022-11-28T06:49:21.131Z,2.03
2022-11-28T06:51:52.142Z,1.92
2022-11-28T06:54:23.708Z,2.55
2022-11-28T06:56:57.392Z,2.88
2022-11-28T06:59:28.476Z,1.90
2022-11-28T07:02:07.284Z,2.60
2022-11-28T07:04:39.419Z,4.32
2022-11-28T07:07:15.014Z,2.50
2022-11-28T07:12:21.540Z,2.90
2022-11-28T07:14:52.461Z,3.40
2022-11-28T07:17:23.433Z,2.83
2022-11-28T07:19:55.298Z,3.08
2022-11-28T07:22:27.455Z,3.38
2022-11-28T07:24:58.330Z,2.95
2022-11-28T07:27:31.835Z,3.13
2022-11-28T07:30:02.659Z,3.85
2022-11-28T07:32:34.583Z,3.97
2022-11-28T07:35:08.207Z,3.35
2022-11-28T07:37:39.517Z,2.40
2022-11-28T07:40:13.708Z,3.28
2022-11-28T07:42:49.026Z,2.75
2022-11-28T07:45:20.110Z,2.80
2022-11-28T07:47:50.900Z,2.40
2022-11-28T07:50:22.418Z,2.72
2022-11-28T07:52:53.224Z,2.45
2022-11-28T07:55:24.184Z,2.53
2022-11-28T07:57:58.691Z,2.55
2022-11-28T08:00:30.502Z,2.15
2022-11-28T08:03:01.629Z,2.22
2022-11-28T08:05:33.802Z,3.17
2022-11-28T08:08:05.185Z,1.95
2022-11-28T08:10:36.361Z,1.92
2022-11-28T08:13:10.348Z,2.35
2022-11-28T08:15:41.734Z,1.23
2022-11-28T08:18:13.272Z,2.08
2022-11-28T08:20:44.434Z,1.77
2022-11-28T08:23:16.427Z,1.73
2022-11-28T08:25:47.980Z,1.45
2022-11-28T08:28:22.092Z,1.83
2022-11-28T08:30:53.590Z,1.33
2022-11-28T08:33:24.818Z,1.30
2022-11-28T08:35:56.837Z,1.15
2022-11-28T08:38:28.043Z,1.25
2022-11-28T08:41:05.047Z,1.10
2022-11-28T08:43:39.737Z,1.20
2022-11-28T08:46:14.358Z,1.60
2022-11-28T08:48:46.363Z,3.33
2022-11-28T08:51:19.043Z,4.05
2022-11-28T08:53:52.701Z,1.70
2022-11-28T08:56:27.934Z,2.78
2022-11-28T08:59:02.709Z,2.38
2022-11-28T09:01:33.688Z,2.55
2022-11-28T09:04:04.658Z,3.05
2022-11-28T09:06:36.931Z,3.33
2022-11-28T09:09:09.306Z,1.63
2022-11-28T09:11:40.831Z,1.15
2022-11-28T09:14:16.013Z,1.83
2022-11-28T09:16:47.972Z,1.38
2022-11-28T09:19:19.928Z,1.30
2022-11-28T09:21:56.159Z,1.55
2022-11-28T09:24:28.455Z,1.30
2022-11-28T09:27:00.132Z,1.13
2022-11-28T09:29:33.638Z,1.08
2022-11-28T09:32:04.853Z,0.90
2022-11-28T09:34:36.036Z,1.40
2022-11-28T09:37:06.855Z,0.85
2022-11-28T09:39:50.626Z,1.15
2022-11-28T09:42:38.442Z,1.10
2022-11-28T09:45:17.709Z,1.38
2022-11-28T09:47:51.924Z,1.33
2022-11-28T09:50:26.810Z,1.30
2022-11-28T09:53:02.432Z,2.20
2022-11-28T09:55:38.095Z,2.17
2022-11-28T09:58:15.410Z,1.63
2022-11-28T10:00:55.570Z,1.10
2022-11-28T10:03:46.925Z,1.23
2022-11-28T10:06:24.725Z,1.25
2022-11-28T10:09:17.419Z,1.15
2022-11-28T10:11:58.212Z,1.30
2022-11-28T10:14:54.190Z,0.90
2022-11-28T10:17:39.196Z,0.90
2022-11-28T10:20:17.114Z,0.98
2022-11-28T10:22:51.796Z,1.15
2022-11-28T10:25:26.078Z,1.00
2022-11-28T10:27:58.103Z,1.67
2022-11-28T10:30:34.045Z,0.82
2022-11-28T10:33:16.267Z,1.25
2022-11-28T10:35:52.390Z,1.15
2022-11-28T10:38:26.330Z,1.70
2022-11-28T10:41:04.762Z,1.40
2022-11-28T10:43:44.353Z,1.65
2022-11-28T10:46:35.940Z,1.13
2022-11-28T10:49:24.374Z,0.90
2022-11-28T10:52:05.886Z,1.05
2022-11-28T10:54:53.664Z,1.27
2022-11-28T10:57:27.763Z,1.23
2022-11-28T11:00:06.389Z,1.40
2022-11-28T11:02:43.261Z,1.15
2022-11-28T11:07:54.894Z,0.68
2022-11-28T11:10:29.758Z,1.15
2022-11-28T11:13:02.833Z,0.60
2022-11-28T11:15:36.374Z,1.10
2022-11-28T11:18:09.485Z,0.50
2022-11-28T11:20:43.245Z,0.60
2022-11-28T11:23:21.698Z,0.95
2022-11-28T11:25:56.723Z,0.70
2022-11-28T11:28:42.551Z,0.70
2022-11-28T11:31:25.693Z,0.90
2022-11-28T11:34:07.500Z,0.63
2022-11-28T11:36:42.190Z,0.68
2022-11-28T11:39:25.660Z,0.80
2022-11-28T11:42:14.950Z,1.00
2022-11-28T11:44:46.622Z,0.93
2022-11-28T11:47:17.667Z,1.90
2022-11-28T11:49:52.863Z,1.10
2022-11-28T11:52:29.977Z,1.20
2022-11-28T11:55:07.499Z,2.55
2022-11-28T11:57:41.893Z,1.88
2022-11-28T12:00:22.015Z,0.77
2022-11-28T12:02:58.161Z,0.95
2022-11-28T12:05:52.475Z,1.17
2022-11-28T12:08:35.402Z,1.27
2022-11-28T12:11:16.397Z,1.25
2022-11-28T12:13:52.733Z,0.98
2022-11-28T12:16:48.959Z,1.10
2022-11-28T12:19:30.161Z,1.10
2022-11-28T12:22:14.275Z,1.20
2022-11-28T12:24:59.398Z,1.02
2022-11-28T12:27:43.762Z,1.70
2022-11-28T12:30:29.438Z,1.30
2022-11-28T12:33:11.742Z,1.00
2022-11-28T12:35:45.031Z,1.50
2022-11-28T12:38:31.640Z,2.40
2022-11-28T12:41:26.246Z,1.60
2022-11-28T12:44:12.286Z,2.13
2022-11-28T12:46:50.497Z,3.38
2022-11-28T12:49:26.378Z,3.20
2022-11-28T12:52:11.010Z,2.83
2022-11-28T12:55:05.375Z,3.35
2022-11-28T12:57:47.414Z,4.00
2022-11-28T13:00:24.364Z,3.90
2022-11-28T13:03:16.989Z,2.40
2022-11-28T13:06:03.132Z,3.67
2022-11-28T13:08:48.776Z,2.58
2022-11-28T13:11:40.288Z,1.80
2022-11-28T13:14:24.408Z,2.00
2022-11-28T13:16:58.130Z,3.40
2022-11-28T13:19:37.778Z,1.77
2022-11-28T13:22:20.193Z,2.08
2022-11-28T13:25:01.084Z,3.67
2022-11-28T13:27:40.119Z,3.28
2022-11-28T13:30:25.177Z,2.38
2022-11-28T13:33:04.674Z,2.75
2022-11-28T13:35:36.847Z,2.90
2022-11-28T13:41:35.285Z,4.75
2022-11-28T13:44:15.650Z,2.75
2022-11-28T13:46:51.466Z,1.45
2022-11-28T13:49:26.157Z,2.72
2022-11-28T13:52:26.497Z,1.70
2022-11-28T13:54:59.734Z,1.20
2022-11-28T13:57:34.461Z,0.90
2022-11-28T14:00:24.063Z,1.38
2022-11-28T14:03:00.977Z,1.77
2022-11-28T14:08:08.039Z,1.58
2022-11-28T14:11:14.582Z,1.10
2022-11-28T14:13:59.087Z,1.10
2022-11-28T14:16:46.848Z,1.45
2022-11-28T14:19:42.620Z,1.35
2022-11-28T14:22:29.638Z,1.40
2022-11-28T14:25:09.478Z,0.80
2022-11-28T14:27:45.260Z,0.95
2022-11-28T14:30:32.778Z,0.88
2022-11-28T14:33:08.036Z,0.55
2022-11-28T14:36:18.001Z,1.20
2022-11-28T14:39:05.832Z,2.45
2022-11-28T14:42:36.751Z,1.80
2022-11-28T14:45:22.717Z,1.55
2022-11-28T14:51:01.401Z,0.82
2022-11-28T14:53:48.674Z,0.98
2022-11-28T14:56:33.052Z,1.10
2022-11-28T14:59:06.778Z,1.10
2022-11-28T15:01:56.943Z,0.70
2022-11-28T15:04:45.532Z,2.67
2022-11-28T15:07:28.838Z,0.98
2022-11-28T15:10:07.865Z,1.20
2022-11-28T15:12:57.410Z,1.63
2022-11-28T15:15:29.270Z,1.90
2022-11-28T15:18:05.048Z,2.10
2022-11-28T15:20:44.534Z,1.80
2022-11-28T15:23:29.645Z,2.13
2022-11-28T15:26:02.359Z,1.77
2022-11-28T15:28:38.010Z,1.80
2022-11-28T15:31:09.705Z,2.15
2022-11-28T15:33:43.623Z,1.77
2022-11-28T15:36:28.837Z,2.60
2022-11-28T15:39:00.941Z,2.70
2022-11-28T15:41:34.597Z,2.33
2022-11-28T15:44:08.519Z,3.00
2022-11-28T15:46:40.706Z,1.70
2022-11-28T15:49:27.473Z,1.95
2022-11-28T15:52:00.371Z,2.10
2022-11-28T15:54:39.553Z,2.22
2022-11-28T15:57:20.963Z,1.88
2022-11-28T15:59:56.294Z,1.40
2022-11-28T16:02:32.379Z,2.70
2022-11-28T16:05:09.243Z,2.85
2022-11-28T16:10:26.258Z,2.50
2022-11-28T16:13:03.234Z,2.80
2022-11-28T16:15:37.897Z,2.70
2022-11-28T16:18:09.986Z,2.72
2022-11-28T16:20:41.950Z,3.92
2022-11-28T16:23:14.533Z,4.03
2022-11-28T16:25:45.522Z,3.08
2022-11-28T16:28:32.670Z,5.28
2022-11-28T16:31:13.312Z,4.13
2022-11-28T16:33:45.831Z,4.70
2022-11-28T16:36:27.749Z,4.93
2022-11-28T16:39:09.489Z,5.80
2022-11-28T16:41:43.831Z,4.75
2022-11-28T16:44:18.133Z,4.93
2022-11-28T16:46:58.290Z,6.72
2022-11-28T16:49:38.555Z,4.15
2022-11-28T16:52:39.590Z,4.05
2022-11-28T16:55:42.504Z,3.40
2022-11-28T16:58:25.649Z,3.33
2022-11-28T17:01:04.673Z,3.08
2022-11-28T17:03:50.397Z,3.90
2022-11-28T17:06:25.969Z,4.72
2022-11-28T17:09:00.756Z,3.88
2022-11-28T17:11:35.817Z,4.07
2022-11-28T17:14:14.179Z,4.32
2022-11-28T17:16:47.044Z,5.18
2022-11-28T17:19:22.086Z,5.40
2022-11-28T17:21:55.717Z,6.18
2022-11-28T17:24:29.073Z,8.60
2022-11-28T17:27:03.629Z,17.23
2022-11-28T17:29:37.605Z,17.00
2022-11-28T17:32:10.511Z,9.30
2022-11-28T17:34:46.486Z,7.55
2022-11-28T17:37:18.333Z,16.83
2022-11-28T17:40:04.880Z,17.55
2022-11-28T17:42:41.733Z,9.48
2022-11-28T17:45:20.224Z,7.90
2022-11-28T17:47:53.427Z,8.02
2022-11-28T17:50:29.061Z,7.32
2022-11-28T17:53:04.556Z,11.45
2022-11-28T17:55:41.637Z,7.68
2022-11-28T17:58:20.932Z,5.68
2022-11-28T18:00:58.734Z,7.88
2022-11-28T18:03:32.482Z,10.65
2022-11-28T18:06:07.759Z,7.07
2022-11-28T18:08:39.080Z,6.47
2022-11-28T18:11:12.811Z,7.30
2022-11-28T18:13:43.875Z,5.18
2022-11-28T18:16:16.555Z,3.58
2022-11-28T18:18:48.270Z,5.22
2022-11-28T18:21:23.634Z,5.10
2022-11-28T18:23:55.537Z,5.70
2022-11-28T18:26:28.675Z,3.47
2022-11-28T18:29:00.519Z,5.00
2022-11-28T18:31:33.064Z,4.43
2022-11-28T18:34:08.107Z,4.10
2022-11-28T18:36:43.311Z,4.25
2022-11-28T18:39:17.904Z,4.18
2022-11-28T18:41:49.648Z,3.40
2022-11-28T18:44:21.404Z,4.25
2022-11-28T18:46:53.098Z,3.60
2022-11-28T18:49:24.434Z,4.07
2022-11-28T18:52:00.082Z,5.80
2022-11-28T18:54:33.466Z,15.60
2022-11-28T18:57:05.019Z,11.40
2022-11-28T18:59:37.706Z,10.35
2022-11-28T19:02:09.498Z,9.13
2022-11-28T19:04:40.796Z,9.95
2022-11-28T19:07:14.660Z,8.85
2022-11-28T19:09:47.407Z,9.30
2022-11-28T19:12:21.081Z,9.30
2022-11-28T19:14:56.107Z,7.97
2022-11-28T19:17:29.867Z,7.72
2022-11-28T19:20:01.226Z,5.13
2022-11-28T19:22:35.777Z,5.13
2022-11-28T19:25:07.270Z,6.63
2022-11-28T19:27:38.332Z,7.35
2022-11-28T19:30:11.328Z,8.65
2022-11-28T19:32:43.533Z,11.25
2022-11-28T19:35:14.746Z,9.27
2022-11-28T19:37:49.975Z,10.77
2022-11-28T19:40:21.895Z,9.50
2022-11-28T19:42:54.339Z,6.10
2022-11-28T19:45:25.519Z,5.80
2022-11-28T19:47:56.641Z,4.28
2022-11-28T19:50:28.739Z,5.70
2022-11-28T19:53:06.239Z,3.55
2022-11-28T19:58:10.100Z,5.32
2022-11-28T20:00:41.374Z,12.05
2022-11-28T20:03:14.497Z,10.05
2022-11-28T20:05:45.870Z,9.18
2022-11-28T20:08:19.875Z,8.70
2022-11-28T20:10:51.625Z,8.60
2022-11-28T20:13:22.804Z,8.63
2022-11-28T20:15:54.299Z,7.97
2022-11-28T20:18:27.510Z,9.10
2022-11-28T20:20:59.443Z,15.93
2022-11-28T20:23:33.552Z,14.27
2022-11-28T20:26:09.170Z,16.90
2022-11-28T20:28:42.051Z,15.60
2022-11-28T20:31:21.911Z,15.60
2022-11-28T20:33:56.585Z,14.65
2022-11-28T20:36:29.496Z,13.90
2022-11-28T20:39:04.578Z,13.43
2022-11-28T20:41:35.837Z,14.55
2022-11-28T20:44:07.234Z,13.95
2022-11-28T20:46:40.582Z,14.77
2022-11-28T20:49:11.447Z,11.15
2022-11-28T20:51:43.229Z,9.55
2022-11-28T20:54:17.815Z,9.30
2022-11-28T20:59:39.709Z,10.70
2022-11-28T21:02:12.429Z,9.73
2022-11-28T21:04:43.971Z,9.77
2022-11-28T21:07:15.269Z,7.30
2022-11-28T21:09:49.555Z,7.72
2022-11-28T21:12:21.223Z,8.15
2022-11-28T21:14:54.779Z,9.05
2022-11-28T21:17:25.877Z,7.95
2022-11-28T21:19:56.933Z,7.95
2022-11-28T21:22:28.304Z,9.30
2022-11-28T21:25:02.721Z,8.90
2022-11-28T21:27:35.050Z,9.00
2022-11-28T21:30:07.016Z,8.40
2022-11-28T21:32:38.669Z,7.50
2022-11-28T21:35:11.603Z,6.70
2022-11-28T21:37:42.957Z,6.35
2022-11-28T21:40:18.340Z,6.47
2022-11-28T21:42:49.259Z,5.78
2022-11-28T21:45:20.951Z,6.00
2022-11-28T21:47:52.487Z,5.43
2022-11-28T21:50:23.622Z,5.50
2022-11-28T21:52:54.786Z,6.75
2022-11-28T21:55:29.203Z,6.20
2022-11-28T21:58:00.801Z,6.07
2022-11-28T22:00:52.769Z,6.45
2022-11-28T22:03:24.635Z,5.88
2022-11-28T22:05:56.169Z,5.25
2022-11-28T22:08:27.652Z,5.75
2022-11-28T22:11:04.478Z,5.88
2022-11-28T22:13:36.296Z,5.25
2022-11-28T22:16:12.871Z,5.60
2022-11-28T22:24:08.663Z,5.55
2022-11-28T22:26:42.432Z,5.22
2022-11-28T22:29:13.519Z,5.90
2022-11-28T22:31:45.925Z,7.78
2022-11-28T22:34:17.486Z,8.05
2022-11-28T22:36:48.948Z,7.70
2022-11-28T22:39:20.191Z,9.45
2022-11-28T22:41:54.411Z,7.75
2022-11-28T22:44:26.052Z,5.47
2022-11-28T22:46:57.502Z,5.93
2022-11-28T22:49:29.031Z,7.78
2022-11-28T22:51:59.935Z,6.75
2022-11-28T22:54:31.393Z,7.18
2022-11-28T22:57:05.599Z,7.43
2022-11-28T22:59:38.855Z,6.78
2022-11-28T23:02:10.503Z,6.57
2022-11-28T23:04:42.658Z,6.85
2022-11-28T23:07:13.936Z,6.63
2022-11-28T23:09:45.386Z,6.97
2022-11-28T23:12:19.610Z,5.95
2022-11-28T23:14:52.102Z,7.85
2022-11-28T23:17:23.257Z,9.00
2022-11-28T23:19:54.602Z,8.90
2022-11-28T23:22:25.384Z,18.35
2022-11-28T23:24:57.006Z,13.77
2022-11-28T23:27:32.260Z,16.35
2022-11-28T23:30:03.520Z,15.98
2022-11-28T23:32:34.420Z,15.85
2022-11-28T23:35:06.635Z,15.35
2022-11-28T23:37:41.820Z,13.60
2022-11-28T23:40:14.051Z,11.85
2022-11-28T23:42:48.244Z,12.77
2022-11-28T23:45:19.597Z,11.43
2022-11-28T23:47:50.749Z,13.00
2022-11-28T23:50:22.118Z,11.90
2022-11-28T23:52:53.880Z,12.93
2022-11-28T23:55:24.733Z,11.23
2022-11-28T23:57:58.817Z,10.65
